sensor_id;sensor_type;location;lat;lon;timestamp;P1;durP1;ratioP1;P2;durP2;ratioP2
4311;SDS011;2169;49.086;9.284;2023-12-04T00:00:02;5.47;;;2.90;;
4311;SDS011;2169;49.086;9.284;2023-12-04T00:02:29;6.53;;;3.90;;
4311;SDS011;2169;49.086;9.284;2023-12-04T00:04:57;3.55;;;3.10;;
4311;SDS011;2169;49.086;9.284;2023-12-04T00:07:24;3.72;;;3.53;;
4311;SDS011;2169;49.086;9.284;2023-12-04T00:09:50;9.23;;;4.95;;
4311;SDS011;2169;49.086;9.284;2023-12-04T00:12:17;2.83;;;2.67;;
4311;SDS011;2169;49.086;9.284;2023-12-04T00:14:45;3.65;;;3.05;;
4311;SDS011;2169;49.086;9.284;2023-12-04T00:17:13;5.38;;;2.50;;
4311;SDS011;2169;49.086;9.284;2023-12-04T00:19:40;8.18;;;2.00;;
4311;SDS011;2169;49.086;9.284;2023-12-04T00:22:07;8.82;;;5.05;;
4311;SDS011;2169;49.086;9.284;2023-12-04T00:24:34;5.35;;;4.82;;
4311;SDS011;2169;49.086;9.284;2023-12-04T00:27:03;4.75;;;2.63;;
4311;SDS011;2169;49.086;9.284;2023-12-04T00:29:30;3.25;;;3.05;;
4311;SDS011;2169;49.086;9.284;2023-12-04T00:31:57;3.70;;;3.40;;
4311;SDS011;2169;49.086;9.284;2023-12-04T00:34:25;3.83;;;3.08;;
4311;SDS011;2169;49.086;9.284;2023-12-04T00:36:52;5.95;;;3.80;;
4311;SDS011;2169;49.086;9.284;2023-12-04T00:39:20;4.07;;;3.60;;
4311;SDS011;2169;49.086;9.284;2023-12-04T00:41:47;6.68;;;3.95;;
4311;SDS011;2169;49.086;9.284;2023-12-04T00:44:13;4.55;;;2.70;;
4311;SDS011;2169;49.086;9.284;2023-12-04T00:46:40;3.15;;;2.58;;
4311;SDS011;2169;49.086;9.284;2023-12-04T00:49:07;5.70;;;3.40;;
4311;SDS011;2169;49.086;9.284;2023-12-04T00:51:39;6.80;;;3.28;;
4311;SDS011;2169;49.086;9.284;2023-12-04T00:54:06;4.65;;;3.00;;
4311;SDS011;2169;49.086;9.284;2023-12-04T00:56:33;3.47;;;2.92;;
4311;SDS011;2169;49.086;9.284;2023-12-04T00:59:00;7.60;;;5.25;;
4311;SDS011;2169;49.086;9.284;2023-12-04T01:01:28;5.70;;;5.05;;
4311;SDS011;2169;49.086;9.284;2023-12-04T01:03:55;6.85;;;2.95;;
4311;SDS011;2169;49.086;9.284;2023-12-04T01:06:25;14.05;;;4.75;;
4311;SDS011;2169;49.086;9.284;2023-12-04T01:08:53;3.20;;;2.67;;
4311;SDS011;2169;49.086;9.284;2023-12-04T01:11:20;4.03;;;2.42;;
4311;SDS011;2169;49.086;9.284;2023-12-04T01:13:48;2.30;;;2.10;;
4311;SDS011;2169;49.086;9.284;2023-12-04T01:16:16;8.57;;;1.88;;
4311;SDS011;2169;49.086;9.284;2023-12-04T01:18:43;3.00;;;2.45;;
4311;SDS011;2169;49.086;9.284;2023-12-04T01:21:10;1.33;;;1.23;;
4311;SDS011;2169;49.086;9.284;2023-12-04T01:23:37;3.53;;;2.45;;
4311;SDS011;2169;49.086;9.284;2023-12-04T01:26:06;2.25;;;1.83;;
4311;SDS011;2169;49.086;9.284;2023-12-04T01:28:33;2.70;;;2.50;;
4311;SDS011;2169;49.086;9.284;2023-12-04T01:31:00;4.45;;;2.58;;
4311;SDS011;2169;49.086;9.284;2023-12-04T01:33:27;2.45;;;2.10;;
4311;SDS011;2169;49.086;9.284;2023-12-04T01:35:59;4.55;;;3.42;;
4311;SDS011;2169;49.086;9.284;2023-12-04T01:38:28;2.15;;;2.05;;
4311;SDS011;2169;49.086;9.284;2023-12-04T01:40:55;3.72;;;3.45;;
4311;SDS011;2169;49.086;9.284;2023-12-04T01:43:23;6.10;;;1.88;;
4311;SDS011;2169;49.086;9.284;2023-12-04T01:45:51;3.05;;;2.95;;
4311;SDS011;2169;49.086;9.284;2023-12-04T01:48:19;4.32;;;2.55;;
4311;SDS011;2169;49.086;9.284;2023-12-04T01:50:46;7.53;;;4.20;;
4311;SDS011;2169;49.086;9.284;2023-12-04T01:53:14;1.77;;;1.60;;
4311;SDS011;2169;49.086;9.284;2023-12-04T01:55:43;6.85;;;3.83;;
4311;SDS011;2169;49.086;9.284;2023-12-04T01:58:10;3.85;;;2.38;;
4311;SDS011;2169;49.086;9.284;2023-12-04T02:00:40;3.65;;;3.35;;
4311;SDS011;2169;49.086;9.284;2023-12-04T02:03:07;4.80;;;3.40;;
4311;SDS011;2169;49.086;9.284;2023-12-04T02:05:36;3.70;;;3.42;;
4311;SDS011;2169;49.086;9.284;2023-12-04T02:08:04;2.05;;;1.65;;
4311;SDS011;2169;49.086;9.284;2023-12-04T02:10:31;5.40;;;2.15;;
4311;SDS011;2169;49.086;9.284;2023-12-04T02:12:58;2.78;;;2.58;;
4311;SDS011;2169;49.086;9.284;2023-12-04T02:15:25;1.88;;;1.83;;
4311;SDS011;2169;49.086;9.284;2023-12-04T02:17:56;3.38;;;2.60;;
4311;SDS011;2169;49.086;9.284;2023-12-04T02:20:30;3.15;;;1.95;;
4311;SDS011;2169;49.086;9.284;2023-12-04T02:22:58;4.53;;;4.13;;
4311;SDS011;2169;49.086;9.284;2023-12-04T02:25:28;4.63;;;4.43;;
4311;SDS011;2169;49.086;9.284;2023-12-04T02:27:56;4.60;;;1.60;;
4311;SDS011;2169;49.086;9.284;2023-12-04T02:30:28;4.30;;;2.47;;
4311;SDS011;2169;49.086;9.284;2023-12-04T02:32:56;3.05;;;2.85;;
4311;SDS011;2169;49.086;9.284;2023-12-04T02:35:26;1.33;;;1.13;;
4311;SDS011;2169;49.086;9.284;2023-12-04T02:37:58;2.92;;;2.60;;
4311;SDS011;2169;49.086;9.284;2023-12-04T02:40:27;4.20;;;2.65;;
4311;SDS011;2169;49.086;9.284;2023-12-04T02:42:55;2.67;;;2.47;;
4311;SDS011;2169;49.086;9.284;2023-12-04T02:45:22;3.25;;;2.33;;
4311;SDS011;2169;49.086;9.284;2023-12-04T02:47:50;4.00;;;2.45;;
4311;SDS011;2169;49.086;9.284;2023-12-04T02:50:16;2.92;;;2.63;;
4311;SDS011;2169;49.086;9.284;2023-12-04T02:52:43;2.08;;;1.98;;
4311;SDS011;2169;49.086;9.284;2023-12-04T02:55:10;1.85;;;1.20;;
4311;SDS011;2169;49.086;9.284;2023-12-04T02:57:39;1.65;;;1.55;;
4311;SDS011;2169;49.086;9.284;2023-12-04T03:00:06;3.47;;;3.17;;
4311;SDS011;2169;49.086;9.284;2023-12-04T03:02:34;4.05;;;2.35;;
4311;SDS011;2169;49.086;9.284;2023-12-04T03:05:01;4.75;;;1.75;;
4311;SDS011;2169;49.086;9.284;2023-12-04T03:07:30;2.40;;;2.30;;
4311;SDS011;2169;49.086;9.284;2023-12-04T03:09:57;6.10;;;3.17;;
4311;SDS011;2169;49.086;9.284;2023-12-04T03:12:23;4.43;;;3.60;;
4311;SDS011;2169;49.086;9.284;2023-12-04T03:15:01;2.30;;;2.08;;
4311;SDS011;2169;49.086;9.284;2023-12-04T03:17:38;13.35;;;4.45;;
4311;SDS011;2169;49.086;9.284;2023-12-04T03:20:05;4.25;;;2.83;;
4311;SDS011;2169;49.086;9.284;2023-12-04T03:22:33;6.43;;;3.40;;
4311;SDS011;2169;49.086;9.284;2023-12-04T03:25:00;5.38;;;2.08;;
4311;SDS011;2169;49.086;9.284;2023-12-04T03:27:27;1.95;;;1.88;;
4311;SDS011;2169;49.086;9.284;2023-12-04T03:29:54;3.45;;;1.67;;
4311;SDS011;2169;49.086;9.284;2023-12-04T03:32:23;2.88;;;2.10;;
4311;SDS011;2169;49.086;9.284;2023-12-04T03:34:50;3.08;;;2.97;;
4311;SDS011;2169;49.086;9.284;2023-12-04T03:37:17;2.30;;;2.17;;
4311;SDS011;2169;49.086;9.284;2023-12-04T03:39:44;4.10;;;2.67;;
4311;SDS011;2169;49.086;9.284;2023-12-04T03:42:12;4.45;;;2.65;;
4311;SDS011;2169;49.086;9.284;2023-12-04T03:44:40;5.72;;;3.72;;
4311;SDS011;2169;49.086;9.284;2023-12-04T03:47:07;2.33;;;2.22;;
4311;SDS011;2169;49.086;9.284;2023-12-04T03:49:36;2.28;;;2.20;;
4311;SDS011;2169;49.086;9.284;2023-12-04T03:52:03;2.25;;;1.85;;
4311;SDS011;2169;49.086;9.284;2023-12-04T03:54:30;8.23;;;4.55;;
4311;SDS011;2169;49.086;9.284;2023-12-04T03:56:58;1.15;;;1.15;;
4311;SDS011;2169;49.086;9.284;2023-12-04T03:59:25;3.17;;;2.88;;
4311;SDS011;2169;49.086;9.284;2023-12-04T04:01:52;10.30;;;6.28;;
4311;SDS011;2169;49.086;9.284;2023-12-04T04:04:19;4.70;;;2.95;;
4311;SDS011;2169;49.086;9.284;2023-12-04T04:06:50;2.50;;;2.30;;
4311;SDS011;2169;49.086;9.284;2023-12-04T04:09:17;2.75;;;2.35;;
4311;SDS011;2169;49.086;9.284;2023-12-04T04:11:45;3.88;;;1.50;;
4311;SDS011;2169;49.086;9.284;2023-12-04T04:14:12;5.05;;;3.28;;
4311;SDS011;2169;49.086;9.284;2023-12-04T04:16:39;2.53;;;2.20;;
4311;SDS011;2169;49.086;9.284;2023-12-04T04:19:07;4.13;;;1.63;;
4311;SDS011;2169;49.086;9.284;2023-12-04T04:21:34;7.95;;;4.93;;
4311;SDS011;2169;49.086;9.284;2023-12-04T04:24:07;17.55;;;3.45;;
4311;SDS011;2169;49.086;9.284;2023-12-04T04:26:34;4.20;;;1.58;;
4311;SDS011;2169;49.086;9.284;2023-12-04T04:29:01;3.15;;;2.83;;
4311;SDS011;2169;49.086;9.284;2023-12-04T04:31:28;3.45;;;2.50;;
4311;SDS011;2169;49.086;9.284;2023-12-04T04:33:55;2.55;;;2.20;;
4311;SDS011;2169;49.086;9.284;2023-12-04T04:36:22;7.93;;;1.83;;
4311;SDS011;2169;49.086;9.284;2023-12-04T04:38:49;13.60;;;3.85;;
4311;SDS011;2169;49.086;9.284;2023-12-04T04:41:17;9.18;;;2.83;;
4311;SDS011;2169;49.086;9.284;2023-12-04T04:43:45;4.43;;;2.63;;
4311;SDS011;2169;49.086;9.284;2023-12-04T04:46:12;4.10;;;3.80;;
4311;SDS011;2169;49.086;9.284;2023-12-04T04:48:39;2.90;;;2.67;;
4311;SDS011;2169;49.086;9.284;2023-12-04T04:51:06;5.68;;;3.80;;
4311;SDS011;2169;49.086;9.284;2023-12-04T04:53:34;9.48;;;3.35;;
4311;SDS011;2169;49.086;9.284;2023-12-04T04:56:01;1.45;;;1.45;;
4311;SDS011;2169;49.086;9.284;2023-12-04T04:58:29;5.38;;;3.63;;
4311;SDS011;2169;49.086;9.284;2023-12-04T05:00:56;9.30;;;4.20;;
4311;SDS011;2169;49.086;9.284;2023-12-04T05:03:23;5.25;;;1.98;;
4311;SDS011;2169;49.086;9.284;2023-12-04T05:05:51;3.85;;;3.15;;
4311;SDS011;2169;49.086;9.284;2023-12-04T05:08:18;2.97;;;2.78;;
4311;SDS011;2169;49.086;9.284;2023-12-04T05:10:45;3.20;;;3.00;;
4311;SDS011;2169;49.086;9.284;2023-12-04T05:13:12;3.33;;;3.03;;
4311;SDS011;2169;49.086;9.284;2023-12-04T05:15:41;2.25;;;2.15;;
4311;SDS011;2169;49.086;9.284;2023-12-04T05:18:08;2.40;;;1.95;;
4311;SDS011;2169;49.086;9.284;2023-12-04T05:20:35;2.95;;;2.60;;
4311;SDS011;2169;49.086;9.284;2023-12-04T05:23:02;3.83;;;3.53;;
4311;SDS011;2169;49.086;9.284;2023-12-04T05:25:29;3.08;;;2.42;;
4311;SDS011;2169;49.086;9.284;2023-12-04T05:27:56;2.08;;;1.67;;
4311;SDS011;2169;49.086;9.284;2023-12-04T05:30:23;2.47;;;1.90;;
4311;SDS011;2169;49.086;9.284;2023-12-04T05:32:52;4.03;;;1.88;;
4311;SDS011;2169;49.086;9.284;2023-12-04T05:35:19;6.43;;;2.83;;
4311;SDS011;2169;49.086;9.284;2023-12-04T05:37:46;6.88;;;2.67;;
4311;SDS011;2169;49.086;9.284;2023-12-04T05:40:13;4.88;;;4.47;;
4311;SDS011;2169;49.086;9.284;2023-12-04T05:42:41;7.70;;;5.22;;
4311;SDS011;2169;49.086;9.284;2023-12-04T05:45:22;3.53;;;3.22;;
4311;SDS011;2169;49.086;9.284;2023-12-04T05:47:48;4.07;;;3.67;;
4311;SDS011;2169;49.086;9.284;2023-12-04T05:50:19;2.22;;;2.10;;
4311;SDS011;2169;49.086;9.284;2023-12-04T05:52:46;3.47;;;3.22;;
4311;SDS011;2169;49.086;9.284;2023-12-04T05:55:12;3.05;;;2.85;;
4311;SDS011;2169;49.086;9.284;2023-12-04T05:57:39;2.58;;;2.15;;
4311;SDS011;2169;49.086;9.284;2023-12-04T06:00:08;3.65;;;3.33;;
4311;SDS011;2169;49.086;9.284;2023-12-04T06:02:37;4.68;;;2.83;;
4311;SDS011;2169;49.086;9.284;2023-12-04T06:05:04;7.57;;;3.38;;
4311;SDS011;2169;49.086;9.284;2023-12-04T06:07:34;3.58;;;3.03;;
4311;SDS011;2169;49.086;9.284;2023-12-04T06:10:01;2.92;;;2.55;;
4311;SDS011;2169;49.086;9.284;2023-12-04T06:12:29;2.00;;;1.90;;
4311;SDS011;2169;49.086;9.284;2023-12-04T06:14:56;2.88;;;1.90;;
4311;SDS011;2169;49.086;9.284;2023-12-04T06:17:24;4.30;;;3.97;;
4311;SDS011;2169;49.086;9.284;2023-12-04T06:19:52;12.05;;;3.05;;
4311;SDS011;2169;49.086;9.284;2023-12-04T06:22:19;3.50;;;3.15;;
4311;SDS011;2169;49.086;9.284;2023-12-04T06:24:49;6.38;;;3.03;;
4311;SDS011;2169;49.086;9.284;2023-12-04T06:27:17;6.10;;;2.35;;
4311;SDS011;2169;49.086;9.284;2023-12-04T06:29:45;3.80;;;3.50;;
4311;SDS011;2169;49.086;9.284;2023-12-04T06:32:14;6.95;;;2.92;;
4311;SDS011;2169;49.086;9.284;2023-12-04T06:34:41;2.58;;;2.38;;
4311;SDS011;2169;49.086;9.284;2023-12-04T06:37:09;3.10;;;2.90;;
4311;SDS011;2169;49.086;9.284;2023-12-04T06:39:38;3.22;;;3.13;;
4311;SDS011;2169;49.086;9.284;2023-12-04T06:42:11;6.57;;;2.78;;
4311;SDS011;2169;49.086;9.284;2023-12-04T06:44:38;8.80;;;5.88;;
4311;SDS011;2169;49.086;9.284;2023-12-04T06:47:07;4.22;;;1.95;;
4311;SDS011;2169;49.086;9.284;2023-12-04T06:49:35;3.28;;;2.47;;
4311;SDS011;2169;49.086;9.284;2023-12-04T06:52:02;5.97;;;5.40;;
4311;SDS011;2169;49.086;9.284;2023-12-04T06:54:30;3.47;;;3.30;;
4311;SDS011;2169;49.086;9.284;2023-12-04T06:56:57;2.72;;;2.63;;
4311;SDS011;2169;49.086;9.284;2023-12-04T06:59:25;2.25;;;2.15;;
4311;SDS011;2169;49.086;9.284;2023-12-04T07:01:53;1.63;;;1.60;;
4311;SDS011;2169;49.086;9.284;2023-12-04T07:04:20;4.10;;;3.80;;
4311;SDS011;2169;49.086;9.284;2023-12-04T07:06:47;5.53;;;3.88;;
4311;SDS011;2169;49.086;9.284;2023-12-04T07:09:14;3.60;;;3.50;;
4311;SDS011;2169;49.086;9.284;2023-12-04T07:11:42;3.10;;;2.78;;
4311;SDS011;2169;49.086;9.284;2023-12-04T07:14:09;3.42;;;2.40;;
4311;SDS011;2169;49.086;9.284;2023-12-04T07:16:42;4.55;;;2.38;;
4311;SDS011;2169;49.086;9.284;2023-12-04T07:19:09;2.88;;;2.67;;
4311;SDS011;2169;49.086;9.284;2023-12-04T07:21:36;2.13;;;2.03;;
4311;SDS011;2169;49.086;9.284;2023-12-04T07:24:04;7.45;;;2.58;;
4311;SDS011;2169;49.086;9.284;2023-12-04T07:26:31;4.85;;;4.32;;
4311;SDS011;2169;49.086;9.284;2023-12-04T07:28:59;2.80;;;1.95;;
4311;SDS011;2169;49.086;9.284;2023-12-04T07:31:26;3.47;;;2.50;;
4311;SDS011;2169;49.086;9.284;2023-12-04T07:33:54;4.90;;;3.45;;
4311;SDS011;2169;49.086;9.284;2023-12-04T07:36:22;3.90;;;3.60;;
4311;SDS011;2169;49.086;9.284;2023-12-04T07:38:50;2.92;;;2.47;;
4311;SDS011;2169;49.086;9.284;2023-12-04T07:41:18;1.65;;;1.65;;
4311;SDS011;2169;49.086;9.284;2023-12-04T07:43:46;4.82;;;2.25;;
4311;SDS011;2169;49.086;9.284;2023-12-04T07:46:13;1.67;;;1.58;;
4311;SDS011;2169;49.086;9.284;2023-12-04T07:48:40;2.75;;;2.58;;
4311;SDS011;2169;49.086;9.284;2023-12-04T07:51:12;2.05;;;1.95;;
4311;SDS011;2169;49.086;9.284;2023-12-04T07:53:39;2.42;;;2.28;;
4311;SDS011;2169;49.086;9.284;2023-12-04T07:56:06;8.23;;;4.85;;
4311;SDS011;2169;49.086;9.284;2023-12-04T07:58:34;5.32;;;4.93;;
4311;SDS011;2169;49.086;9.284;2023-12-04T08:01:01;6.68;;;5.95;;
4311;SDS011;2169;49.086;9.284;2023-12-04T08:03:28;8.98;;;4.80;;
4311;SDS011;2169;49.086;9.284;2023-12-04T08:05:55;6.68;;;3.75;;
4311;SDS011;2169;49.086;9.284;2023-12-04T08:08:24;7.05;;;2.40;;
4311;SDS011;2169;49.086;9.284;2023-12-04T08:10:51;11.18;;;4.82;;
4311;SDS011;2169;49.086;9.284;2023-12-04T08:13:20;6.68;;;6.10;;
4311;SDS011;2169;49.086;9.284;2023-12-04T08:15:48;3.25;;;2.95;;
4311;SDS011;2169;49.086;9.284;2023-12-04T08:18:15;3.97;;;1.55;;
4311;SDS011;2169;49.086;9.284;2023-12-04T08:20:54;3.80;;;3.42;;
4311;SDS011;2169;49.086;9.284;2023-12-04T08:23:21;7.28;;;3.30;;
4311;SDS011;2169;49.086;9.284;2023-12-04T08:25:49;3.17;;;2.88;;
4311;SDS011;2169;49.086;9.284;2023-12-04T08:28:17;5.97;;;2.63;;
4311;SDS011;2169;49.086;9.284;2023-12-04T08:30:44;2.78;;;2.58;;
4311;SDS011;2169;49.086;9.284;2023-12-04T08:33:11;3.70;;;3.35;;
4311;SDS011;2169;49.086;9.284;2023-12-04T08:35:38;3.58;;;2.85;;
4311;SDS011;2169;49.086;9.284;2023-12-04T08:38:04;5.05;;;3.15;;
4311;SDS011;2169;49.086;9.284;2023-12-04T08:40:31;3.60;;;3.38;;
4311;SDS011;2169;49.086;9.284;2023-12-04T08:43:00;4.85;;;3.58;;
4311;SDS011;2169;49.086;9.284;2023-12-04T08:45:27;5.75;;;4.60;;
4311;SDS011;2169;49.086;9.284;2023-12-04T08:47:53;6.50;;;3.90;;
4311;SDS011;2169;49.086;9.284;2023-12-04T08:50:20;4.75;;;4.43;;
4311;SDS011;2169;49.086;9.284;2023-12-04T08:52:47;3.88;;;3.55;;
4311;SDS011;2169;49.086;9.284;2023-12-04T08:55:15;6.07;;;5.55;;
4311;SDS011;2169;49.086;9.284;2023-12-04T08:57:42;3.80;;;3.60;;
4311;SDS011;2169;49.086;9.284;2023-12-04T09:00:11;3.08;;;2.80;;
4311;SDS011;2169;49.086;9.284;2023-12-04T09:02:39;6.88;;;5.45;;
4311;SDS011;2169;49.086;9.284;2023-12-04T09:05:06;4.32;;;3.95;;
4311;SDS011;2169;49.086;9.284;2023-12-04T09:07:35;9.63;;;4.57;;
4311;SDS011;2169;49.086;9.284;2023-12-04T09:10:02;3.88;;;3.67;;
4311;SDS011;2169;49.086;9.284;2023-12-04T09:12:29;5.45;;;5.13;;
4311;SDS011;2169;49.086;9.284;2023-12-04T09:14:56;6.90;;;5.25;;
4311;SDS011;2169;49.086;9.284;2023-12-04T09:17:24;4.68;;;3.63;;
4311;SDS011;2169;49.086;9.284;2023-12-04T09:19:52;4.70;;;3.90;;
4311;SDS011;2169;49.086;9.284;2023-12-04T09:22:19;5.28;;;4.35;;
4311;SDS011;2169;49.086;9.284;2023-12-04T09:24:46;5.13;;;4.75;;
4311;SDS011;2169;49.086;9.284;2023-12-04T09:27:13;5.07;;;4.18;;
4311;SDS011;2169;49.086;9.284;2023-12-04T09:29:40;4.88;;;4.00;;
4311;SDS011;2169;49.086;9.284;2023-12-04T09:32:07;8.27;;;2.90;;
4311;SDS011;2169;49.086;9.284;2023-12-04T09:34:36;4.60;;;2.38;;
4311;SDS011;2169;49.086;9.284;2023-12-04T09:37:03;3.03;;;2.83;;
4311;SDS011;2169;49.086;9.284;2023-12-04T09:39:30;4.68;;;4.28;;
4311;SDS011;2169;49.086;9.284;2023-12-04T09:41:58;6.70;;;3.50;;
4311;SDS011;2169;49.086;9.284;2023-12-04T09:44:25;3.63;;;2.50;;
4311;SDS011;2169;49.086;9.284;2023-12-04T09:46:55;9.48;;;5.07;;
4311;SDS011;2169;49.086;9.284;2023-12-04T09:49:22;3.17;;;2.97;;
4311;SDS011;2169;49.086;9.284;2023-12-04T09:51:52;4.18;;;3.67;;
4311;SDS011;2169;49.086;9.284;2023-12-04T09:54:19;3.10;;;2.55;;
4311;SDS011;2169;49.086;9.284;2023-12-04T09:56:46;2.20;;;2.10;;
4311;SDS011;2169;49.086;9.284;2023-12-04T09:59:14;3.83;;;3.55;;
4311;SDS011;2169;49.086;9.284;2023-12-04T10:01:43;4.03;;;3.65;;
4311;SDS011;2169;49.086;9.284;2023-12-04T10:04:12;6.25;;;5.65;;
4311;SDS011;2169;49.086;9.284;2023-12-04T10:06:39;4.40;;;3.55;;
4311;SDS011;2169;49.086;9.284;2023-12-04T10:09:07;4.25;;;3.35;;
4311;SDS011;2169;49.086;9.284;2023-12-04T10:11:39;6.25;;;3.72;;
4311;SDS011;2169;49.086;9.284;2023-12-04T10:14:13;4.70;;;3.95;;
4311;SDS011;2169;49.086;9.284;2023-12-04T10:16:41;4.68;;;3.80;;
4311;SDS011;2169;49.086;9.284;2023-12-04T10:19:15;5.85;;;4.10;;
4311;SDS011;2169;49.086;9.284;2023-12-04T10:21:43;6.22;;;3.33;;
4311;SDS011;2169;49.086;9.284;2023-12-04T10:24:12;6.07;;;4.80;;
4311;SDS011;2169;49.086;9.284;2023-12-04T10:26:52;11.18;;;4.80;;
4311;SDS011;2169;49.086;9.284;2023-12-04T10:29:19;3.65;;;3.45;;
4311;SDS011;2169;49.086;9.284;2023-12-04T10:31:46;5.80;;;4.13;;
4311;SDS011;2169;49.086;9.284;2023-12-04T10:34:15;4.45;;;2.70;;
4311;SDS011;2169;49.086;9.284;2023-12-04T10:36:42;3.53;;;3.22;;
4311;SDS011;2169;49.086;9.284;2023-12-04T10:39:10;3.50;;;3.08;;
4311;SDS011;2169;49.086;9.284;2023-12-04T10:41:39;4.00;;;2.30;;
4311;SDS011;2169;49.086;9.284;2023-12-04T10:44:07;5.38;;;3.72;;
4311;SDS011;2169;49.086;9.284;2023-12-04T10:46:35;8.63;;;5.68;;
4311;SDS011;2169;49.086;9.284;2023-12-04T10:49:03;6.65;;;3.15;;
4311;SDS011;2169;49.086;9.284;2023-12-04T10:51:30;3.80;;;2.65;;
4311;SDS011;2169;49.086;9.284;2023-12-04T10:53:57;5.25;;;4.45;;
4311;SDS011;2169;49.086;9.284;2023-12-04T10:56:30;4.97;;;4.60;;
4311;SDS011;2169;49.086;9.284;2023-12-04T10:59:01;2.10;;;1.98;;
4311;SDS011;2169;49.086;9.284;2023-12-04T11:01:34;5.53;;;3.20;;
4311;SDS011;2169;49.086;9.284;2023-12-04T11:04:01;9.13;;;4.20;;
4311;SDS011;2169;49.086;9.284;2023-12-04T11:06:33;2.35;;;2.35;;
4311;SDS011;2169;49.086;9.284;2023-12-04T11:09:03;2.92;;;2.72;;
4311;SDS011;2169;49.086;9.284;2023-12-04T11:11:34;6.35;;;5.75;;
4311;SDS011;2169;49.086;9.284;2023-12-04T11:14:03;2.30;;;2.10;;
4311;SDS011;2169;49.086;9.284;2023-12-04T11:16:32;3.97;;;3.78;;
4311;SDS011;2169;49.086;9.284;2023-12-04T11:19:06;3.33;;;3.22;;
4311;SDS011;2169;49.086;9.284;2023-12-04T11:21:42;4.05;;;2.58;;
4311;SDS011;2169;49.086;9.284;2023-12-04T11:24:11;12.27;;;2.42;;
4311;SDS011;2169;49.086;9.284;2023-12-04T11:26:42;3.80;;;3.45;;
4311;SDS011;2169;49.086;9.284;2023-12-04T11:29:11;5.25;;;4.65;;
4311;SDS011;2169;49.086;9.284;2023-12-04T11:31:39;5.85;;;4.72;;
4311;SDS011;2169;49.086;9.284;2023-12-04T11:34:07;3.97;;;3.70;;
4311;SDS011;2169;49.086;9.284;2023-12-04T11:36:36;2.88;;;2.67;;
4311;SDS011;2169;49.086;9.284;2023-12-04T11:39:03;2.45;;;2.25;;
4311;SDS011;2169;49.086;9.284;2023-12-04T11:41:35;2.33;;;2.22;;
4311;SDS011;2169;49.086;9.284;2023-12-04T11:44:03;6.72;;;4.72;;
4311;SDS011;2169;49.086;9.284;2023-12-04T11:46:38;3.03;;;2.45;;
4311;SDS011;2169;49.086;9.284;2023-12-04T11:51:55;2.67;;;2.28;;
4311;SDS011;2169;49.086;9.284;2023-12-04T11:54:22;3.55;;;3.25;;
4311;SDS011;2169;49.086;9.284;2023-12-04T11:56:57;6.10;;;1.80;;
4311;SDS011;2169;49.086;9.284;2023-12-04T11:59:27;7.10;;;4.40;;
4311;SDS011;2169;49.086;9.284;2023-12-04T12:01:54;2.97;;;2.78;;
4311;SDS011;2169;49.086;9.284;2023-12-04T12:04:25;2.67;;;2.42;;
4311;SDS011;2169;49.086;9.284;2023-12-04T12:06:52;3.28;;;3.05;;
4311;SDS011;2169;49.086;9.284;2023-12-04T12:09:21;5.40;;;2.92;;
4311;SDS011;2169;49.086;9.284;2023-12-04T12:11:49;5.70;;;3.50;;
4311;SDS011;2169;49.086;9.284;2023-12-04T12:14:19;6.65;;;5.78;;
4311;SDS011;2169;49.086;9.284;2023-12-04T12:16:48;12.25;;;6.35;;
4311;SDS011;2169;49.086;9.284;2023-12-04T12:19:15;4.30;;;4.00;;
4311;SDS011;2169;49.086;9.284;2023-12-04T12:21:44;5.05;;;3.65;;
4311;SDS011;2169;49.086;9.284;2023-12-04T12:24:12;5.30;;;4.07;;
4311;SDS011;2169;49.086;9.284;2023-12-04T12:26:39;3.00;;;2.80;;
4311;SDS011;2169;49.086;9.284;2023-12-04T12:29:08;6.85;;;4.78;;
4311;SDS011;2169;49.086;9.284;2023-12-04T12:31:35;2.63;;;2.42;;
4311;SDS011;2169;49.086;9.284;2023-12-04T12:34:04;6.22;;;3.63;;
4311;SDS011;2169;49.086;9.284;2023-12-04T12:36:31;7.45;;;6.07;;
4311;SDS011;2169;49.086;9.284;2023-12-04T12:38:59;4.88;;;4.25;;
4311;SDS011;2169;49.086;9.284;2023-12-04T12:41:28;3.88;;;3.53;;
4311;SDS011;2169;49.086;9.284;2023-12-04T12:43:55;6.97;;;3.97;;
4311;SDS011;2169;49.086;9.284;2023-12-04T12:46:22;6.63;;;4.32;;
4311;SDS011;2169;49.086;9.284;2023-12-04T12:48:51;5.22;;;4.65;;
4311;SDS011;2169;49.086;9.284;2023-12-04T12:51:19;11.70;;;5.93;;
4311;SDS011;2169;49.086;9.284;2023-12-04T12:53:47;9.68;;;6.22;;
4311;SDS011;2169;49.086;9.284;2023-12-04T12:56:14;8.00;;;6.20;;
4311;SDS011;2169;49.086;9.284;2023-12-04T12:58:42;3.88;;;3.60;;
4311;SDS011;2169;49.086;9.284;2023-12-04T13:01:09;6.95;;;5.03;;
4311;SDS011;2169;49.086;9.284;2023-12-04T13:03:36;16.38;;;6.72;;
4311;SDS011;2169;49.086;9.284;2023-12-04T13:06:04;6.82;;;5.43;;
4311;SDS011;2169;49.086;9.284;2023-12-04T13:08:33;8.38;;;5.95;;
4311;SDS011;2169;49.086;9.284;2023-12-04T13:11:00;4.05;;;3.55;;
4311;SDS011;2169;49.086;9.284;2023-12-04T13:13:27;6.10;;;5.45;;
4311;SDS011;2169;49.086;9.284;2023-12-04T13:15:55;11.60;;;5.30;;
4311;SDS011;2169;49.086;9.284;2023-12-04T13:18:21;11.27;;;6.82;;
4311;SDS011;2169;49.086;9.284;2023-12-04T13:20:48;7.28;;;5.20;;
4311;SDS011;2169;49.086;9.284;2023-12-04T13:23:18;14.40;;;6.00;;
4311;SDS011;2169;49.086;9.284;2023-12-04T13:25:50;23.52;;;5.70;;
4311;SDS011;2169;49.086;9.284;2023-12-04T13:28:19;6.72;;;5.32;;
4311;SDS011;2169;49.086;9.284;2023-12-04T13:30:46;8.00;;;6.45;;
4311;SDS011;2169;49.086;9.284;2023-12-04T13:33:13;14.00;;;6.85;;
4311;SDS011;2169;49.086;9.284;2023-12-04T13:35:40;8.00;;;6.68;;
4311;SDS011;2169;49.086;9.284;2023-12-04T13:38:07;23.20;;;7.35;;
4311;SDS011;2169;49.086;9.284;2023-12-04T13:40:38;7.55;;;5.45;;
4311;SDS011;2169;49.086;9.284;2023-12-04T13:43:06;6.40;;;4.80;;
4311;SDS011;2169;49.086;9.284;2023-12-04T13:45:51;5.30;;;4.65;;
4311;SDS011;2169;49.086;9.284;2023-12-04T13:48:18;4.63;;;4.28;;
4311;SDS011;2169;49.086;9.284;2023-12-04T13:50:46;7.45;;;5.90;;
4311;SDS011;2169;49.086;9.284;2023-12-04T13:53:15;9.65;;;7.20;;
4311;SDS011;2169;49.086;9.284;2023-12-04T13:55:46;5.57;;;4.97;;
4311;SDS011;2169;49.086;9.284;2023-12-04T13:58:35;8.60;;;4.68;;
4311;SDS011;2169;49.086;9.284;2023-12-04T14:01:09;6.13;;;5.25;;
4311;SDS011;2169;49.086;9.284;2023-12-04T14:03:40;6.53;;;4.80;;
4311;SDS011;2169;49.086;9.284;2023-12-04T14:06:07;10.60;;;6.10;;
4311;SDS011;2169;49.086;9.284;2023-12-04T14:08:34;6.57;;;4.65;;
4311;SDS011;2169;49.086;9.284;2023-12-04T14:11:01;9.52;;;6.93;;
4311;SDS011;2169;49.086;9.284;2023-12-04T14:13:29;6.47;;;5.47;;
4311;SDS011;2169;49.086;9.284;2023-12-04T14:15:58;8.07;;;6.53;;
4311;SDS011;2169;49.086;9.284;2023-12-04T14:18:26;8.07;;;5.15;;
4311;SDS011;2169;49.086;9.284;2023-12-04T14:20:55;21.42;;;7.45;;
4311;SDS011;2169;49.086;9.284;2023-12-04T14:23:22;9.05;;;5.88;;
4311;SDS011;2169;49.086;9.284;2023-12-04T14:25:49;5.25;;;4.63;;
4311;SDS011;2169;49.086;9.284;2023-12-04T14:28:16;14.10;;;9.45;;
4311;SDS011;2169;49.086;9.284;2023-12-04T14:30:43;9.65;;;7.72;;
4311;SDS011;2169;49.086;9.284;2023-12-04T14:33:12;11.77;;;6.78;;
4311;SDS011;2169;49.086;9.284;2023-12-04T14:35:39;13.80;;;5.15;;
4311;SDS011;2169;49.086;9.284;2023-12-04T14:38:07;15.02;;;6.18;;
4311;SDS011;2169;49.086;9.284;2023-12-04T14:40:34;5.63;;;5.13;;
4311;SDS011;2169;49.086;9.284;2023-12-04T14:43:01;7.10;;;6.55;;
4311;SDS011;2169;49.086;9.284;2023-12-04T14:45:30;9.45;;;8.27;;
4311;SDS011;2169;49.086;9.284;2023-12-04T14:47:58;21.52;;;9.88;;
4311;SDS011;2169;49.086;9.284;2023-12-04T14:50:26;23.55;;;12.73;;
4311;SDS011;2169;49.086;9.284;2023-12-04T14:52:53;15.57;;;8.60;;
4311;SDS011;2169;49.086;9.284;2023-12-04T14:55:22;8.40;;;6.93;;
4311;SDS011;2169;49.086;9.284;2023-12-04T14:58:20;7.05;;;5.75;;
4311;SDS011;2169;49.086;9.284;2023-12-04T15:01:01;9.35;;;6.18;;
4311;SDS011;2169;49.086;9.284;2023-12-04T15:03:46;5.25;;;4.78;;
4311;SDS011;2169;49.086;9.284;2023-12-04T15:06:46;6.65;;;4.35;;
4311;SDS011;2169;49.086;9.284;2023-12-04T15:09:41;10.13;;;5.40;;
4311;SDS011;2169;49.086;9.284;2023-12-04T15:12:30;6.70;;;5.82;;
4311;SDS011;2169;49.086;9.284;2023-12-04T15:15:16;12.10;;;6.40;;
4311;SDS011;2169;49.086;9.284;2023-12-04T15:17:59;68.25;;;7.68;;
4311;SDS011;2169;49.086;9.284;2023-12-04T15:20:39;7.65;;;4.60;;
4311;SDS011;2169;49.086;9.284;2023-12-04T15:23:08;9.82;;;5.90;;
4311;SDS011;2169;49.086;9.284;2023-12-04T15:25:34;12.65;;;7.95;;